createdAt,value
2022-11-17T00:01:08.301Z,94045.00
2022-11-17T00:04:10.191Z,94036.22
2022-11-17T00:07:12.114Z,94031.19
2022-11-17T00:10:14.052Z,94028.13
2022-11-17T00:13:17.358Z,94015.50
2022-11-17T00:16:21.201Z,94009.38
2022-11-17T00:19:23.141Z,94004.75
2022-11-17T00:22:25.541Z,93993.66
2022-11-17T00:25:27.380Z,93994.41
2022-11-17T00:28:30.774Z,93990.59
2022-11-17T00:31:34.002Z,93989.81
2022-11-17T00:34:35.922Z,93991.72
2022-11-17T00:37:39.970Z,93979.44
2022-11-17T00:40:42.070Z,93976.38
2022-11-17T00:43:45.328Z,93976.38
2022-11-17T00:46:47.360Z,93983.69
2022-11-17T00:49:49.301Z,93976.78
2022-11-17T00:52:51.200Z,93974.88
2022-11-17T00:55:53.124Z,93962.22
2022-11-17T00:58:56.514Z,93964.13
2022-11-17T01:01:58.466Z,93963.00
2022-11-17T01:05:00.506Z,93963.75
2022-11-17T01:08:02.370Z,93966.41
2022-11-17T01:11:07.052Z,93964.53
2022-11-17T01:14:15.052Z,93970.66
2022-11-17T01:17:16.946Z,93971.78
2022-11-17T01:20:19.229Z,93970.28
2022-11-17T01:23:21.166Z,93970.28
2022-11-17T01:26:27.391Z,93968.38
2022-11-17T01:29:30.807Z,93963.75
2022-11-17T01:32:32.760Z,93956.47
2022-11-17T01:35:34.666Z,93949.97
2022-11-17T01:38:36.599Z,93944.63
2022-11-17T01:41:38.552Z,93935.44
2022-11-17T01:44:57.330Z,93946.16
2022-11-17T01:48:02.010Z,93940.47
2022-11-17T01:51:04.052Z,93938.16
2022-11-17T01:54:06.971Z,93939.69
2022-11-17T01:57:13.626Z,93930.88
2022-11-17T02:00:18.329Z,93933.19
2022-11-17T02:03:22.652Z,93919.38
2022-11-17T02:06:32.353Z,93915.63
2022-11-17T02:09:37.393Z,93924.03
2022-11-17T02:12:40.909Z,93931.31
2022-11-17T02:15:44.471Z,93931.69
2022-11-17T02:18:48.435Z,93932.88
2022-11-17T02:22:20.367Z,93922.50
2022-11-17T02:25:45.030Z,93919.50
2022-11-17T02:28:52.712Z,93927.16
2022-11-17T02:32:03.317Z,93924.44
2022-11-17T02:35:16.829Z,93929.41
2022-11-17T02:38:29.925Z,93936.31
2022-11-17T02:41:38.475Z,93939.38
2022-11-17T02:44:49.168Z,93929.03
2022-11-17T02:47:54.622Z,93926.75
2022-11-17T02:50:58.315Z,93926.78
2022-11-17T02:54:02.206Z,93934.81
2022-11-17T02:57:04.292Z,93926.00
2022-11-17T03:00:11.527Z,93924.47
2022-11-17T03:03:29.810Z,93923.34
2022-11-17T03:06:45.682Z,93910.34
2022-11-17T03:09:56.987Z,93909.19
2022-11-17T03:13:04.702Z,93906.88
2022-11-17T03:16:17.137Z,93903.03
2022-11-17T03:19:26.464Z,93898.81
2022-11-17T03:22:33.631Z,93906.47
2022-11-17T03:25:37.964Z,93901.88
2022-11-17T03:28:44.432Z,93903.78
2022-11-17T03:31:52.423Z,93906.84
2022-11-17T03:34:57.809Z,93904.94
2022-11-17T03:38:08.171Z,93907.19
2022-11-17T03:41:14.479Z,93904.88
2022-11-17T03:44:19.641Z,93902.97
2022-11-17T03:50:51.729Z,93901.50
2022-11-17T03:53:54.536Z,93901.47
2022-11-17T03:57:02.428Z,93904.53
2022-11-17T04:00:07.718Z,93900.69
2022-11-17T04:03:11.046Z,93899.25
2022-11-17T04:06:13.065Z,93892.28
2022-11-17T04:09:17.642Z,93886.53
2022-11-17T04:12:23.409Z,93883.84
2022-11-17T04:15:25.610Z,93876.97
2022-11-17T04:18:29.079Z,93874.66
2022-11-17T04:21:31.054Z,93877.34
2022-11-17T04:24:33.059Z,93882.69
2022-11-17T04:27:35.153Z,93883.84
2022-11-17T04:30:37.428Z,93863.19
2022-11-17T04:33:43.277Z,93867.38
2022-11-17T04:36:45.753Z,93857.81
2022-11-17T04:39:47.671Z,93860.09
2022-11-17T04:42:49.611Z,93859.31
2022-11-17T04:45:51.553Z,93867.78
2022-11-17T04:48:55.475Z,93866.66
2022-11-17T04:51:57.741Z,93860.84
2022-11-17T04:55:00.229Z,93848.66
2022-11-17T04:58:02.168Z,93845.59
2022-11-17T05:01:04.317Z,93830.63
2022-11-17T05:04:08.955Z,93813.81
2022-11-17T05:07:10.955Z,93804.56
2022-11-17T05:10:13.200Z,93798.47
2022-11-17T05:13:15.917Z,93807.66
2022-11-17T05:16:18.627Z,93803.13
2022-11-17T05:19:24.032Z,93808.88
2022-11-17T05:22:26.009Z,93797.81
2022-11-17T05:25:27.952Z,93781.34
2022-11-17T05:28:31.660Z,93775.59
2022-11-17T05:31:34.464Z,93774.06
2022-11-17T05:34:37.943Z,93769.09
2022-11-17T05:37:40.296Z,93766.41
2022-11-17T05:40:42.259Z,93776.38
2022-11-17T05:43:44.555Z,93769.09
2022-11-17T05:46:46.739Z,93776.34
2022-11-17T05:49:50.155Z,93783.59
2022-11-17T05:52:52.179Z,93794.31
2022-11-17T05:56:07.507Z,93790.88
2022-11-17T05:59:24.813Z,93783.63
2022-11-17T06:02:32.550Z,93780.91
2022-11-17T06:05:36.192Z,93782.81
2022-11-17T06:08:38.170Z,93795.06
2022-11-17T06:11:40.230Z,93790.41
2022-11-17T06:14:42.622Z,93780.06
2022-11-17T06:17:49.376Z,93795.03
2022-11-17T06:20:52.849Z,93793.09
2022-11-17T06:23:55.112Z,93783.56
2022-11-17T06:26:57.144Z,93795.84
2022-11-17T06:30:01.602Z,93790.88
2022-11-17T06:33:05.631Z,93800.03
2022-11-17T06:36:09.867Z,93798.53
2022-11-17T06:39:11.966Z,93813.09
2022-11-17T06:42:13.935Z,93806.19
2022-11-17T06:45:15.931Z,93805.00
2022-11-17T06:48:19.056Z,93784.75
2022-11-17T06:51:22.440Z,93772.16
2022-11-17T06:54:24.369Z,93769.41
2022-11-17T06:57:26.517Z,93774.41
2022-11-17T07:00:29.262Z,93779.38
2022-11-17T07:03:33.215Z,93788.19
2022-11-17T07:06:38.766Z,93784.38
2022-11-17T07:09:40.663Z,93784.38
2022-11-17T07:12:42.672Z,93799.66
2022-11-17T07:15:44.621Z,93790.84
2022-11-17T07:18:46.704Z,93792.00
2022-11-17T07:21:50.145Z,93799.28
2022-11-17T07:24:52.208Z,93791.59
2022-11-17T07:27:58.436Z,93796.97
2022-11-17T07:31:02.451Z,93804.56
2022-11-17T07:34:04.401Z,93813.75
2022-11-17T07:37:07.776Z,93814.53
2022-11-17T07:40:10.776Z,93818.34
2022-11-17T07:43:12.688Z,93823.28
2022-11-17T07:46:15.573Z,93812.94
2022-11-17T07:49:17.485Z,93814.13
2022-11-17T07:52:20.854Z,93820.22
2022-11-17T07:55:24.680Z,93819.84
2022-11-17T07:58:26.618Z,93829.81
2022-11-17T08:01:28.806Z,93846.66
2022-11-17T08:04:30.779Z,93844.34
2022-11-17T08:07:34.196Z,93845.50
2022-11-17T08:10:36.219Z,93842.47
2022-11-17T08:13:39.807Z,93833.66
2022-11-17T08:16:41.710Z,93826.31
2022-11-17T08:19:43.746Z,93821.38
2022-11-17T08:22:47.106Z,93833.25
2022-11-17T08:25:49.226Z,93838.25
2022-11-17T08:28:55.255Z,93848.19
2022-11-17T08:32:00.253Z,93852.75
2022-11-17T08:35:02.323Z,93874.16
2022-11-17T08:38:05.958Z,93877.59
2022-11-17T08:41:09.705Z,93872.63
2022-11-17T08:44:11.692Z,93899.47
2022-11-17T08:47:14.072Z,93897.94
2022-11-17T08:50:16.231Z,93881.47
2022-11-17T08:53:21.905Z,93892.22
2022-11-17T08:56:23.892Z,93884.94
2022-11-17T08:59:25.933Z,93901.03
2022-11-17T09:02:27.963Z,93924.38
2022-11-17T09:05:29.988Z,93920.13
2022-11-17T09:08:48.873Z,93913.63
2022-11-17T09:11:50.894Z,93891.75
2022-11-17T09:14:52.814Z,93901.72
2022-11-17T09:17:54.896Z,93905.91
2022-11-17T09:20:59.879Z,93913.97
2022-11-17T09:24:03.591Z,93912.00
2022-11-17T09:27:05.704Z,93918.13
2022-11-17T09:30:08.751Z,93929.66
2022-11-17T09:33:10.798Z,93940.78
2022-11-17T09:36:14.569Z,93930.03
2022-11-17T09:39:17.951Z,93912.78
2022-11-17T09:42:22.325Z,93901.59
2022-11-17T09:45:30.170Z,93900.38
2022-11-17T09:48:41.476Z,93899.19
2022-11-17T09:51:58.353Z,93896.50
2022-11-17T09:55:04.611Z,93898.31
2022-11-17T09:58:15.469Z,93918.22
2022-11-17T10:01:19.362Z,93928.72
2022-11-17T10:04:21.350Z,93950.19
2022-11-17T10:07:23.851Z,93959.41
2022-11-17T10:10:37.243Z,93973.16
2022-11-17T10:13:39.773Z,93975.53
2022-11-17T10:16:44.722Z,93979.69
2022-11-17T10:19:46.695Z,93973.47
2022-11-17T10:22:51.793Z,93962.75
2022-11-17T10:25:58.945Z,93967.31
2022-11-17T10:29:09.279Z,93976.50
2022-11-17T10:32:15.118Z,93960.72
2022-11-17T10:35:19.396Z,93956.00
2022-11-17T10:38:23.149Z,93930.31
2022-11-17T10:41:30.764Z,93907.63
2022-11-17T10:44:33.804Z,93901.50
2022-11-17T10:47:38.941Z,93900.66
2022-11-17T10:50:51.545Z,93896.38
2022-11-17T10:54:05.264Z,93891.66
2022-11-17T10:57:15.980Z,93886.34
2022-11-17T11:00:28.231Z,93877.00
2022-11-17T11:03:32.099Z,93863.16
2022-11-17T11:06:35.096Z,93886.94
2022-11-17T11:09:42.799Z,93900.03
2022-11-17T11:12:52.585Z,93871.72
2022-11-17T11:15:54.818Z,93870.75
2022-11-17T11:18:58.088Z,93883.13
2022-11-17T11:22:26.355Z,93876.19
2022-11-17T11:25:36.348Z,93870.41
2022-11-17T11:28:55.000Z,93881.59
2022-11-17T11:32:10.620Z,93867.88
2022-11-17T11:35:42.854Z,93867.66
2022-11-17T11:38:53.988Z,93864.63
2022-11-17T11:42:14.931Z,93880.78
2022-11-17T11:45:23.647Z,93889.84
2022-11-17T11:48:27.850Z,93895.31
2022-11-17T11:51:37.204Z,93872.81
2022-11-17T11:54:46.315Z,93876.47
2022-11-17T11:57:58.979Z,93879.25
2022-11-17T12:01:05.843Z,93876.50
2022-11-17T12:04:21.483Z,93860.97
2022-11-17T12:07:28.883Z,93865.19
2022-11-17T12:10:38.021Z,93879.66
2022-11-17T12:13:47.235Z,93871.38
2022-11-17T12:17:01.709Z,93880.59
2022-11-17T12:20:10.658Z,93881.38
2022-11-17T12:23:21.485Z,93865.06
2022-11-17T12:26:26.307Z,93869.53
2022-11-17T12:29:31.285Z,93884.81
2022-11-17T12:32:53.923Z,93882.63
2022-11-17T12:36:30.951Z,93876.50
2022-11-17T12:39:57.296Z,93880.75
2022-11-17T12:43:29.080Z,93879.97
2022-11-17T12:46:32.829Z,93878.91
2022-11-17T12:49:43.392Z,93886.25
2022-11-17T12:52:56.708Z,93885.13
2022-11-17T12:56:22.135Z,93873.59
2022-11-17T12:59:58.478Z,93867.75
2022-11-17T13:03:08.188Z,93870.75
2022-11-17T13:06:34.486Z,93875.00
2022-11-17T13:09:36.285Z,93886.13
2022-11-17T13:12:38.232Z,93895.09
2022-11-17T13:15:42.304Z,93898.25
2022-11-17T13:18:44.987Z,93889.34
2022-11-17T13:21:48.436Z,93896.88
2022-11-17T13:24:50.849Z,93897.97
2022-11-17T13:27:58.463Z,93891.59
2022-11-17T13:31:03.609Z,93898.44
2022-11-17T13:34:13.879Z,93905.78
2022-11-17T13:37:19.896Z,93906.63
2022-11-17T13:40:22.888Z,93917.06
2022-11-17T13:43:26.490Z,93913.09
2022-11-17T13:46:28.511Z,93903.09
2022-11-17T13:49:33.252Z,93904.13
2022-11-17T13:52:43.583Z,93895.03
2022-11-17T13:55:48.934Z,93885.00
2022-11-17T13:58:52.863Z,93899.47
2022-11-17T14:02:24.069Z,93911.91
2022-11-17T14:05:27.140Z,93916.84
2022-11-17T14:08:32.973Z,93912.56
2022-11-17T14:11:40.854Z,93934.84
2022-11-17T14:14:44.971Z,93950.63
2022-11-17T14:17:49.504Z,93927.13
2022-11-17T14:21:05.050Z,93938.75
2022-11-17T14:24:12.695Z,93920.31
2022-11-17T14:27:37.904Z,93926.41
2022-11-17T14:30:40.239Z,93920.69
2022-11-17T14:33:42.172Z,93918.34
2022-11-17T14:36:44.296Z,93918.34
2022-11-17T14:39:47.576Z,93929.41
2022-11-17T14:42:49.522Z,93937.47
2022-11-17T14:45:51.417Z,93935.97
2022-11-17T14:48:54.117Z,93937.22
2022-11-17T14:51:56.013Z,93905.34
2022-11-17T14:54:59.539Z,93911.56
2022-11-17T14:58:01.409Z,93913.63
2022-11-17T15:01:08.496Z,93924.72
2022-11-17T15:04:43.072Z,93918.69
2022-11-17T15:07:36.787Z,93876.84
2022-11-17T15:10:44.343Z,93882.97
2022-11-17T15:13:46.315Z,93903.75
2022-11-17T15:16:48.349Z,93910.53
2022-11-17T15:19:50.720Z,93922.75
2022-11-17T15:22:52.678Z,93918.91
2022-11-17T15:25:56.106Z,93911.59
2022-11-17T15:28:58.096Z,93910.91
2022-11-17T15:32:00.245Z,93920.78
2022-11-17T15:35:02.413Z,93923.47
2022-11-17T15:38:04.533Z,93915.03
2022-11-17T15:41:09.586Z,93922.69
2022-11-17T15:44:11.616Z,93928.47
2022-11-17T15:47:14.659Z,93923.03
2022-11-17T15:50:16.977Z,93916.50
2022-11-17T15:53:18.953Z,93908.81
2022-11-17T15:56:24.344Z,93909.66
2022-11-17T15:59:26.494Z,93911.91
2022-11-17T16:02:28.424Z,93911.88
2022-11-17T16:05:30.344Z,93912.25
2022-11-17T16:08:32.727Z,93914.19
2022-11-17T16:11:36.828Z,93911.09
2022-11-17T16:14:38.980Z,93909.97
2022-11-17T16:17:40.886Z,93910.72
2022-11-17T16:20:42.884Z,93908.03
2022-11-17T16:23:46.625Z,93907.28
2022-11-17T16:26:50.444Z,93901.91
2022-11-17T16:29:52.392Z,93903.44
2022-11-17T16:32:54.474Z,93908.06
2022-11-17T16:36:04.183Z,93900.47
2022-11-17T16:39:07.967Z,93905.56
2022-11-17T16:42:11.782Z,93907.09
2022-11-17T16:45:14.295Z,93897.09
2022-11-17T16:48:16.375Z,93900.66
2022-11-17T16:51:20.682Z,93897.59
2022-11-17T16:54:22.900Z,93898.00
2022-11-17T16:57:27.384Z,93911.53
2022-11-17T17:00:31.796Z,93907.69
2022-11-17T17:03:34.262Z,93918.16
2022-11-17T17:06:41.773Z,93908.97
2022-11-17T17:09:44.283Z,93904.47
2022-11-17T17:12:48.128Z,93899.06
2022-11-17T17:15:50.222Z,93894.81
2022-11-17T17:18:56.073Z,93896.69
2022-11-17T17:21:58.034Z,93900.19
2022-11-17T17:25:00.517Z,93904.09
2022-11-17T17:28:04.489Z,93907.59
2022-11-17T17:31:07.529Z,93907.53
2022-11-17T17:34:12.661Z,93904.66
2022-11-17T17:37:15.408Z,93896.25
2022-11-17T17:40:19.156Z,93889.72
2022-11-17T17:43:23.379Z,93891.59
2022-11-17T17:46:26.264Z,93887.72
2022-11-17T17:49:28.830Z,93893.81
2022-11-17T17:52:31.433Z,93890.44
2022-11-17T17:55:35.144Z,93885.13
2022-11-17T17:58:42.681Z,93881.16
2022-11-17T18:04:16.440Z,93866.13
2022-11-17T18:07:19.493Z,93869.97
2022-11-17T18:10:21.690Z,93873.41
2022-11-17T18:13:24.873Z,93875.66
2022-11-17T18:16:29.388Z,93872.56
2022-11-17T18:19:33.367Z,93882.22
2022-11-17T18:22:36.575Z,93899.88
2022-11-17T18:25:39.246Z,93881.13
2022-11-17T18:28:42.768Z,93864.97
2022-11-17T18:31:45.801Z,93872.59
2022-11-17T18:34:50.035Z,93862.19
2022-11-17T18:37:52.699Z,93863.31
2022-11-17T18:41:03.165Z,93858.34
2022-11-17T18:44:07.113Z,93855.84
2022-11-17T18:47:11.332Z,93863.69
2022-11-17T18:50:18.106Z,93855.09
2022-11-17T18:53:20.567Z,93855.03
2022-11-17T18:56:24.982Z,93855.00
2022-11-17T18:59:27.879Z,93852.69
2022-11-17T19:02:30.799Z,93849.19
2022-11-17T19:05:36.574Z,93844.56
2022-11-17T19:08:40.292Z,93848.34
2022-11-17T19:11:43.437Z,93847.13
2022-11-17T19:14:46.545Z,93849.06
2022-11-17T19:17:49.774Z,93854.94
2022-11-17T19:20:53.934Z,93838.59
2022-11-17T19:23:58.943Z,93842.06
2022-11-17T19:27:02.165Z,93844.41
2022-11-17T19:30:08.403Z,93840.84
2022-11-17T19:33:11.177Z,93856.16
2022-11-17T19:36:17.276Z,93845.38
2022-11-17T19:39:20.484Z,93855.72
2022-11-17T19:42:23.723Z,93864.50
2022-11-17T19:45:28.402Z,93856.47
2022-11-17T19:48:32.331Z,93863.00
2022-11-17T19:51:37.256Z,93852.25
2022-11-17T19:54:39.871Z,93845.69
2022-11-17T19:57:42.804Z,93844.09
2022-11-17T20:00:46.758Z,93837.22
2022-11-17T20:03:51.367Z,93840.25
2022-11-17T20:06:55.598Z,93837.56
2022-11-17T20:09:58.312Z,93856.31
2022-11-17T20:13:01.289Z,93855.59
2022-11-17T20:16:11.462Z,93852.53
2022-11-17T20:19:15.194Z,93842.63
2022-11-17T20:22:19.748Z,93839.56
2022-11-17T20:25:21.968Z,93824.59
2022-11-17T20:28:24.624Z,93818.06
2022-11-17T20:31:30.159Z,93812.75
2022-11-17T20:34:32.899Z,93839.59
2022-11-17T20:37:36.972Z,93840.75
2022-11-17T20:40:39.416Z,93850.03
2022-11-17T20:43:42.039Z,93843.53
2022-11-17T20:46:44.197Z,93842.69
2022-11-17T20:49:46.975Z,93846.16
2022-11-17T20:52:51.277Z,93844.19
2022-11-17T20:55:55.240Z,93841.50
2022-11-17T20:58:57.735Z,93842.75
2022-11-17T21:02:00.444Z,93846.16
2022-11-17T21:05:02.959Z,93850.34
2022-11-17T21:08:06.818Z,93854.19
2022-11-17T21:11:11.377Z,93857.63
2022-11-17T21:14:13.901Z,93857.28
2022-11-17T21:17:16.610Z,93839.63
2022-11-17T21:20:18.754Z,93853.78
2022-11-17T21:23:22.000Z,93840.06
2022-11-17T21:26:24.319Z,93835.81
2022-11-17T21:29:27.007Z,93842.31
2022-11-17T21:32:28.857Z,93838.22
2022-11-17T21:35:30.731Z,93840.13
2022-11-17T21:38:34.156Z,93829.38
2022-11-17T21:41:36.017Z,93822.09
2022-11-17T21:44:38.059Z,93822.50
2022-11-17T21:47:40.004Z,93816.34
2022-11-17T21:50:43.609Z,93831.34
2022-11-17T21:53:47.696Z,93817.59
2022-11-17T21:56:49.575Z,93823.38
2022-11-17T21:59:51.471Z,93813.44
2022-11-17T22:02:53.393Z,93818.06
2022-11-17T22:06:04.274Z,93810.44
2022-11-17T22:09:07.710Z,93814.22
2022-11-17T22:12:09.620Z,93815.00
2022-11-17T22:15:11.972Z,93813.81
2022-11-17T22:18:13.914Z,93817.66
2022-11-17T22:21:15.820Z,93822.63
2022-11-17T22:24:19.078Z,93827.25
2022-11-17T22:27:20.898Z,93827.97
2022-11-17T22:30:22.861Z,93834.09
2022-11-17T22:33:25.128Z,93834.44
2022-11-17T22:36:26.985Z,93841.75
2022-11-17T22:39:30.284Z,93851.34
2022-11-17T22:42:32.102Z,93853.22
2022-11-17T22:45:35.741Z,93864.31
2022-11-17T22:48:38.265Z,93863.97
2022-11-17T22:51:40.138Z,93868.91
2022-11-17T22:54:43.321Z,93870.81
2022-11-17T22:57:45.141Z,93863.59
2022-11-17T23:00:47.301Z,93858.59
2022-11-17T23:03:49.290Z,93853.66
2022-11-17T23:06:51.692Z,93852.09
2022-11-17T23:09:54.903Z,93857.47
2022-11-17T23:12:56.759Z,93856.38
2022-11-17T23:15:58.643Z,93859.13
2022-11-17T23:19:00.729Z,93859.13
2022-11-17T23:22:02.572Z,93859.97
2022-11-17T23:25:06.546Z,93854.72
2022-11-17T23:28:08.453Z,93865.03
2022-11-17T23:31:12.249Z,93865.44
2022-11-17T23:34:14.093Z,93866.16
2022-11-17T23:37:16.826Z,93865.81
2022-11-17T23:40:20.039Z,93866.22
2022-11-17T23:43:21.868Z,93864.69
2022-11-17T23:46:25.430Z,93873.44
2022-11-17T23:49:27.258Z,93865.44
2022-11-17T23:52:29.031Z,93861.59
2022-11-17T23:55:32.484Z,93851.28
2022-11-17T23:58:34.423Z,93850.13
